»·PEaware :: PHTIM KSNA-46CN

PHTIM :: KSNA-46CN

FLIGHT INFORMATION

Flight Status: Arrived
Operator: Unknown
More flights by this operator :: More flights under this callsign
Pilot: Tim P. (6337)
Aircraft: CESSNA 172 SKYHAWK
(C172)
More flights by this aircraft type
Origin: KSNA John Wayne-Orange Co
United States
Destination: 46CN Crystal Airport
United States
More flights between these airports :: More routes between these airports
Route: +PDZ
File this flight plan on PilotEdge
Remarks:
Altitude:
(Current/Filed)
8,500ft
Speed:
(Current/Filed)
0kts
Departed: 14-Dec-18 11:45 AM
Arrived: 14-Dec-18 12:28 PM
Distance/Time
Traveled:
49nm/0:43
Distance/Time
To Go:
Arrived

Flight Plot

Page will automatically refresh every two minutes.

Flight plan parsing failed; only flown route is shown


Map Options




Map Legend


Flown Route
Filed Route
Departure Airport
Arrival Airport
Navaid (VOR, NDB)
Fix

Horizontal Profiles

Position Reports

Time Latitude Longitude Heading Altitude Ground
Speed
14-Dec-18 11:34 33.667868 -117.870715 221 60ft 0kts
14-Dec-18 11:35 33.667868 -117.870715 221 60ft 0kts
14-Dec-18 11:36 33.668238 -117.871487 309 60ft 6kts
14-Dec-18 11:37 33.670578 -117.869383 40 60ft 13kts
14-Dec-18 11:38 33.673408 -117.867851 52 60ft 9kts
14-Dec-18 11:39 33.673447 -117.867774 61 60ft 0kts
14-Dec-18 11:40 33.675223 -117.866358 27 60ft 12kts
14-Dec-18 11:41 33.678482 -117.864296 27 60ft 13kts
14-Dec-18 11:42 33.679972 -117.863674 269 60ft 0kts
14-Dec-18 11:43 33.679978 -117.863704 294 60ft 1kts
14-Dec-18 11:44 33.670979 -117.869993 208 247ft 72kts
14-Dec-18 11:45 33.665468 -117.889229 330 838ft 91kts
14-Dec-18 11:46 33.692473 -117.899839 342 1348ft 114kts
14-Dec-18 11:47 33.717644 -117.885644 55 1826ft 115kts
14-Dec-18 11:48 33.735820 -117.854189 54 2322ft 115kts
14-Dec-18 11:49 33.753270 -117.822579 58 2892ft 108kts
14-Dec-18 11:50 33.766948 -117.795537 61 3563ft 84kts
14-Dec-18 11:51 33.779747 -117.772959 56 4149ft 85kts
14-Dec-18 11:52 33.793010 -117.749753 58 4645ft 83kts
14-Dec-18 11:53 33.806254 -117.727743 56 5142ft 80kts
14-Dec-18 11:54 33.820147 -117.704956 58 5552ft 89kts
14-Dec-18 11:55 33.834904 -117.679016 60 5960ft 98kts
14-Dec-18 11:56 33.848832 -117.649845 64 6362ft 103kts
14-Dec-18 11:57 33.864046 -117.620851 59 6758ft 102kts
14-Dec-18 11:58 33.879374 -117.592834 60 7157ft 99kts
14-Dec-18 11:59 33.895612 -117.566337 56 7560ft 95kts
14-Dec-18 12:00 33.913755 -117.539119 38 7578ft 118kts
14-Dec-18 12:01 33.944102 -117.521395 15 7536ft 123kts
14-Dec-18 12:02 33.976580 -117.510706 17 7535ft 120kts
14-Dec-18 12:03 34.009117 -117.499375 16 7542ft 125kts
14-Dec-18 12:04 34.041924 -117.488203 15 7549ft 125kts
14-Dec-18 12:05 34.075061 -117.476490 18 7556ft 125kts
14-Dec-18 12:06 34.107253 -117.466260 16 7556ft 124kts
14-Dec-18 12:07 34.140310 -117.454830 15 7549ft 123kts
14-Dec-18 12:08 34.173111 -117.443808 18 7541ft 126kts
14-Dec-18 12:09 34.206998 -117.431866 14 7535ft 127kts
14-Dec-18 12:10 34.240995 -117.421105 14 7532ft 129kts
14-Dec-18 12:11 34.272551 -117.438604 327 7527ft 128kts
14-Dec-18 12:12 34.302841 -117.460477 327 7519ft 126kts
14-Dec-18 12:13 34.333022 -117.482174 328 7515ft 127kts
14-Dec-18 12:14 34.362932 -117.502930 328 7618ft 119kts
14-Dec-18 12:15 34.390416 -117.527620 316 7626ft 127kts
14-Dec-18 12:16 34.415272 -117.560136 308 7457ft 133kts
14-Dec-18 12:17 34.439505 -117.592515 313 7352ft 131kts
14-Dec-18 12:18 34.464241 -117.623623 293 7298ft 127kts
14-Dec-18 12:19 34.475631 -117.663598 280 7205ft 127kts
14-Dec-18 12:20 34.486086 -117.705734 286 6800ft 132kts
14-Dec-18 12:21 34.485855 -117.748630 266 5597ft 127kts
14-Dec-18 12:22 34.484962 -117.789673 266 4325ft 122kts
14-Dec-18 12:23 34.484899 -117.827086 270 3569ft 88kts
14-Dec-18 12:24 34.493945 -117.847105 188 3547ft 72kts
14-Dec-18 12:25 34.487791 -117.851227 132 3575ft 78kts
14-Dec-18 12:26 34.484814 -117.829148 89 3426ft 48kts
14-Dec-18 12:27 34.485348 -117.823882 180 3413ft 0kts
14-Dec-18 12:28 34.485348 -117.823882 180 3414ft 0kts

Navigation Log

Ident Type
Flight plan parsing failed, navigation log unavailable